WAOO/BDJ METAR and TAF weather

Enter ICAO airport designator
Station Type Date Time Source
WAOO METAR 2020/07/11 01:30 UTC NOAA

WAOO 110130Z AUTO 01004KT 340V040 9000 FEW015 26/26 Q1011


Station Type Date Time Source
WAOO Decoded METAR 2020/07/11 01:30 UTC NOAA

Station name not available
Jul 10, 2020 - 09:30 PM EDT / 2020.07.11 0130 UTC
Wind: from the N (010 degrees) at 5 MPH (4 KT) (direction variable):0
Visibility: 5 mile(s):0
Sky conditions: mostly clear
Temperature: 78 F (26 C)
Dew Point: 78 F (26 C)
Relative Humidity: 100%
Pressure (altimeter): 29.85 in. Hg (1011 hPa)
ob: WAOO 110130Z AUTO 01004KT 340V040 9000 FEW015 26/26 Q1011
cycle: 1

Station Type Date Time Source
WAOO TAF 2020/07/10 18:30 UTC NOAA

TAF WAOO 101700Z 1018/1118 10007KT 9000 SCT018 PROB40
TEMPO 1106/1109 7000 RA

Example: see airport list